Time;durP1;ratioP1;P1;durP2;ratioP2;P2;SDS_P1;SDS_P2;PMS_P1;PMS_P2;Temp;Humidity;BMP_temperature;BMP_pressure;BME280_temperature;BME280_humidity;BME280_pressure;Samples;Min_cycle;Max_cycle;Signal;HPM_P1;HPM_P2
2023/04/20 00:01:51;;;;;;;;;;;9.20;88.80;;;;;;4990019;28;20380;-62
2023/04/20 00:04:17;;;;;;;;;;;9.20;89.00;;;;;;4989942;28;19914;-61
2023/04/20 00:06:43;;;;;;;;;;;9.20;85.30;;;;;;4990498;28;19957;-62
2023/04/20 00:09:09;;;;;;;;;;;9.30;84.20;;;;;;4990697;28;19948;-61
2023/04/20 00:11:35;;;;;;;;;;;9.20;84.00;;;;;;4989711;28;19922;-62
2023/04/20 00:14:01;;;;;;;;;;;9.20;86.90;;;;;;4991252;28;19920;-61
2023/04/20 00:16:26;;;;;;;;;;;9.30;84.90;;;;;;4995056;28;19968;-61
2023/04/20 00:18:52;;;;;;;;;;;9.30;86.40;;;;;;4989434;28;19918;-62
2023/04/20 00:21:22;;;;;;;;;;;9.20;84.80;;;;;;4984355;28;19930;-60
2023/04/20 00:23:48;;;;;;;;;;;9.20;84.80;;;;;;4987609;28;19918;-64
2023/04/20 00:26:13;;;;;;;;;;;9.20;84.10;;;;;;4989250;28;19937;-60
2023/04/20 00:28:39;;;;;;;;;;;9.20;84.30;;;;;;4986735;28;19947;-62
2023/04/20 00:31:04;;;;;;;;;;;9.20;84.40;;;;;;4988592;28;20019;-60
2023/04/20 00:33:30;;;;;;;;;;;9.20;84.60;;;;;;4991491;28;19925;-63
2023/04/20 00:35:55;;;;;;;;;;;9.20;83.80;;;;;;4989153;28;20516;-61
2023/04/20 00:38:21;;;;;;;;;;;9.20;87.30;;;;;;4992473;28;19925;-60
2023/04/20 00:40:51;;;;;;;;;;;9.20;85.50;;;;;;4991852;28;19917;-61
2023/04/20 00:43:18;;;;;;;;;;;9.20;86.90;;;;;;4987847;28;20431;-63
2023/04/20 00:45:44;;;;;;;;;;;9.20;85.20;;;;;;4988606;28;20319;-59
2023/04/20 00:48:10;;;;;;;;;;;9.30;84.00;;;;;;4992631;28;20064;-62
2023/04/20 00:50:36;;;;;;;;;;;9.20;83.80;;;;;;4991152;28;20879;-62
2023/04/20 00:53:02;;;;;;;;;;;9.30;84.20;;;;;;4989800;28;19914;-61
2023/04/20 00:55:28;;;;;;;;;;;9.30;87.70;;;;;;4990177;28;19933;-63
2023/04/20 00:57:54;;;;;;;;;;;9.20;85.00;;;;;;4988277;28;19914;-61
2023/04/20 01:00:20;;;;;;;;;;;9.20;85.00;;;;;;4987177;28;19914;-64
2023/04/20 01:02:45;;;;;;;;;;;9.20;86.80;;;;;;4992158;28;20020;-60
2023/04/20 01:05:11;;;;;;;;;;;9.20;85.10;;;;;;4988968;28;20004;-63
2023/04/20 01:07:36;;;;;;;;;;;9.20;84.80;;;;;;4989479;28;19921;-62
2023/04/20 01:10:03;;;;;;;;;;;9.20;85.90;;;;;;4991229;28;19921;-60
2023/04/20 01:12:28;;;;;;;;;;;9.30;87.70;;;;;;4984028;28;19964;-63
2023/04/20 01:14:53;;;;;;;;;;;9.20;86.10;;;;;;4986131;28;20340;-61
2023/04/20 01:17:19;;;;;;;;;;;9.20;86.10;;;;;;4988670;28;20369;-61
2023/04/20 01:19:45;;;;;;;;;;;9.20;87.10;;;;;;4987846;28;19921;-61
2023/04/20 01:22:15;;;;;;;;;;;9.20;86.40;;;;;;4990271;28;19968;-63
2023/04/20 01:24:41;;;;;;;;;;;9.20;87.00;;;;;;4991709;28;20392;-63
2023/04/20 01:27:06;;;;;;;;;;;9.20;87.80;;;;;;4988862;28;19914;-61
2023/04/20 01:29:32;;;;;;;;;;;9.20;88.30;;;;;;4989920;28;19968;-63
2023/04/20 01:31:58;;;;;;;;;;;9.20;89.50;;;;;;4977025;28;19921;-63
2023/04/20 01:34:23;;;;;;;;;;;9.10;89.80;;;;;;4981515;28;20391;-62
2023/04/20 01:36:49;;;;;;;;;;;9.20;90.20;;;;;;4984930;28;19913;-63
2023/04/20 01:39:15;;;;;;;;;;;9.20;91.00;;;;;;4984763;28;19941;-63
2023/04/20 01:41:41;;;;;;;;;;;9.20;90.80;;;;;;4989791;28;19921;-63
2023/04/20 01:44:06;;;;;;;;;;;9.20;91.40;;;;;;4989987;28;19917;-64
2023/04/20 01:46:32;;;;;;;;;;;9.20;92.30;;;;;;4987855;28;20012;-64
2023/04/20 01:48:57;;;;;;;;;;;9.20;92.20;;;;;;4986004;28;20528;-64
2023/04/20 01:51:23;;;;;;;;;;;9.20;92.90;;;;;;4988637;28;19917;-63
2023/04/20 01:53:48;;;;;;;;;;;9.30;93.00;;;;;;4984720;28;19956;-63
2023/04/20 01:56:14;;;;;;;;;;;9.30;93.30;;;;;;4988699;28;19922;-58
2023/04/20 01:58:39;;;;;;;;;;;9.30;93.60;;;;;;4986464;28;19918;-59
2023/04/20 02:01:05;;;;;;;;;;;9.30;95.20;;;;;;4986264;28;19987;-65
2023/04/20 02:03:30;;;;;;;;;;;9.30;94.90;;;;;;4988786;28;19926;-62
2023/04/20 02:05:56;;;;;;;;;;;9.30;95.10;;;;;;4991817;28;19917;-63
2023/04/20 02:08:21;;;;;;;;;;;9.20;95.90;;;;;;4987365;28;19941;-65
2023/04/20 02:10:46;;;;;;;;;;;9.20;96.30;;;;;;4993484;28;19925;-63
2023/04/20 02:13:12;;;;;;;;;;;9.20;98.60;;;;;;4993006;28;19960;-66
2023/04/20 02:15:37;;;;;;;;;;;9.10;98.00;;;;;;4989161;28;19924;-62
2023/04/20 02:18:03;;;;;;;;;;;9.10;98.20;;;;;;4992782;28;19924;-61
2023/04/20 02:20:28;;;;;;;;;;;9.20;99.70;;;;;;4990229;28;20402;-63
2023/04/20 02:22:54;;;;;;;;;;;9.10;99.90;;;;;;4991526;28;21865;-63
2023/04/20 02:25:20;;;;;;;;;;;9.10;99.90;;;;;;4994939;28;20291;-61
2023/04/20 02:27:45;;;;;;;;;;;9.10;99.90;;;;;;4997435;28;19914;-63
2023/04/20 02:30:11;;;;;;;;;;;9.10;99.90;;;;;;4986178;28;19914;-61
2023/04/20 02:32:37;;;;;;;;;;;9.10;99.90;;;;;;4994803;28;19921;-61
2023/04/20 02:35:03;;;;;;;;;;;9.10;99.90;;;;;;4993542;28;20300;-61
2023/04/20 02:37:29;;;;;;;;;;;9.10;99.90;;;;;;4984645;28;20254;-60
2023/04/20 02:39:54;;;;;;;;;;;9.10;99.90;;;;;;4988600;28;20258;-59
2023/04/20 02:42:20;;;;;;;;;;;9.10;99.90;;;;;;4988678;28;19924;-61
2023/04/20 02:44:45;;;;;;;;;;;9.10;99.90;;;;;;4991413;28;19922;-61
2023/04/20 02:47:11;;;;;;;;;;;9.00;99.90;;;;;;4989928;28;19952;-61
2023/04/20 02:49:37;;;;;;;;;;;9.00;99.90;;;;;;4990243;28;19914;-61
2023/04/20 02:52:03;;;;;;;;;;;9.00;99.90;;;;;;4989389;28;19957;-58
2023/04/20 02:54:29;;;;;;;;;;;9.00;99.90;;;;;;4988854;28;20351;-61
2023/04/20 02:56:54;;;;;;;;;;;9.00;99.90;;;;;;4990883;28;20372;-61
2023/04/20 02:59:20;;;;;;;;;;;8.90;99.90;;;;;;4989953;28;20265;-60
2023/04/20 03:01:45;;;;;;;;;;;9.00;99.90;;;;;;4991135;28;19969;-61
2023/04/20 03:04:11;;;;;;;;;;;9.00;99.90;;;;;;4992654;28;19918;-60
2023/04/20 03:06:39;;;;;;;;;;;8.90;99.90;;;;;;4995427;28;20389;-61
2023/04/20 03:09:04;;;;;;;;;;;8.90;99.90;;;;;;4989782;28;19921;-61
2023/04/20 03:11:30;;;;;;;;;;;8.80;99.90;;;;;;4988124;28;19925;-61
2023/04/20 03:13:55;;;;;;;;;;;8.80;99.90;;;;;;4994175;28;19917;-61
2023/04/20 03:16:21;;;;;;;;;;;8.80;99.90;;;;;;4988350;28;19918;-62
2023/04/20 03:18:46;;;;;;;;;;;8.80;99.90;;;;;;4995717;28;19967;-58
2023/04/20 03:21:11;;;;;;;;;;;8.80;99.90;;;;;;4991214;28;19936;-61
2023/04/20 03:23:37;;;;;;;;;;;8.80;99.90;;;;;;4994619;28;20368;-60
2023/04/20 03:26:03;;;;;;;;;;;8.70;99.90;;;;;;4989622;28;20304;-61
2023/04/20 03:28:28;;;;;;;;;;;8.70;99.90;;;;;;4993964;28;19924;-59
2023/04/20 03:30:54;;;;;;;;;;;8.70;99.90;;;;;;4991961;28;20345;-61
2023/04/20 03:33:20;;;;;;;;;;;8.60;99.90;;;;;;4992531;28;19936;-61
2023/04/20 03:35:45;;;;;;;;;;;8.60;99.90;;;;;;4989889;28;19921;-56
2023/04/20 03:38:10;;;;;;;;;;;8.60;99.90;;;;;;4989189;28;19922;-61
2023/04/20 03:40:36;;;;;;;;;;;8.60;99.90;;;;;;4991932;28;19914;-61
2023/04/20 03:43:01;;;;;;;;;;;8.60;99.90;;;;;;4984189;28;19922;-61
2023/04/20 03:45:27;;;;;;;;;;;8.50;99.90;;;;;;4988280;28;20794;-60
2023/04/20 03:47:52;;;;;;;;;;;8.50;99.90;;;;;;4994512;28;20368;-61
2023/04/20 03:50:18;;;;;;;;;;;8.40;99.90;;;;;;4988842;28;19924;-59
2023/04/20 03:52:43;;;;;;;;;;;8.50;99.90;;;;;;4989161;28;20323;-59
2023/04/20 03:55:09;;;;;;;;;;;8.50;99.90;;;;;;4989720;28;19914;-59
2023/04/20 03:57:35;;;;;;;;;;;8.40;99.90;;;;;;4987756;28;19964;-58
2023/04/20 04:00:00;;;;;;;;;;;8.40;99.90;;;;;;4988725;28;19914;-59
2023/04/20 04:02:25;;;;;;;;;;;8.40;99.90;;;;;;4987730;28;19921;-61
2023/04/20 04:04:51;;;;;;;;;;;8.40;99.90;;;;;;4987048;28;19929;-59
2023/04/20 04:07:16;;;;;;;;;;;8.30;99.90;;;;;;4989519;28;19974;-59
2023/04/20 04:09:42;;;;;;;;;;;8.30;99.90;;;;;;4989534;28;19920;-63
2023/04/20 04:12:07;;;;;;;;;;;8.30;99.90;;;;;;4983263;28;20020;-59
2023/04/20 04:14:33;;;;;;;;;;;8.40;99.90;;;;;;4988381;28;20391;-62
2023/04/20 04:16:59;;;;;;;;;;;8.40;99.90;;;;;;4988966;28;19918;-60
2023/04/20 04:19:24;;;;;;;;;;;8.40;99.90;;;;;;4986814;28;20281;-63
2023/04/20 04:21:50;;;;;;;;;;;8.40;99.90;;;;;;4990929;28;19913;-61
2023/04/20 04:24:16;;;;;;;;;;;8.40;99.90;;;;;;4987740;28;20009;-62
2023/04/20 04:26:42;;;;;;;;;;;8.40;99.90;;;;;;4991972;28;19920;-59
2023/04/20 04:29:09;;;;;;;;;;;8.40;99.90;;;;;;4990565;28;19921;-62
2023/04/20 04:31:34;;;;;;;;;;;8.40;99.90;;;;;;4988691;28;19917;-61
2023/04/20 04:34:00;;;;;;;;;;;8.30;99.90;;;;;;4987560;28;19921;-61
2023/04/20 04:36:25;;;;;;;;;;;8.30;99.90;;;;;;4986391;28;19928;-63
2023/04/20 04:38:51;;;;;;;;;;;8.30;99.90;;;;;;4991359;28;19921;-61
2023/04/20 04:41:17;;;;;;;;;;;8.30;99.90;;;;;;4989774;28;19914;-59
2023/04/20 04:43:43;;;;;;;;;;;8.30;99.90;;;;;;4987701;28;19917;-62
2023/04/20 04:46:09;;;;;;;;;;;8.40;99.90;;;;;;4984476;28;19949;-62
2023/04/20 04:48:36;;;;;;;;;;;8.40;99.90;;;;;;4986981;28;20494;-62
2023/04/20 04:51:01;;;;;;;;;;;8.40;99.90;;;;;;4975241;28;19961;-62
2023/04/20 04:53:27;;;;;;;;;;;8.40;99.90;;;;;;4987620;28;19988;-62
2023/04/20 04:55:52;;;;;;;;;;;8.40;99.90;;;;;;4987102;28;19914;-56
2023/04/20 04:58:18;;;;;;;;;;;8.40;99.90;;;;;;4988096;28;19929;-55
2023/04/20 05:00:43;;;;;;;;;;;8.30;99.90;;;;;;4983100;28;19916;-55
2023/04/20 05:03:08;;;;;;;;;;;8.30;99.90;;;;;;4980690;28;19961;-54
2023/04/20 05:05:34;;;;;;;;;;;8.20;99.90;;;;;;4985522;28;20574;-55
2023/04/20 05:07:59;;;;;;;;;;;8.00;99.90;;;;;;4992515;28;20367;-56
2023/04/20 05:10:25;;;;;;;;;;;7.80;99.90;;;;;;4989207;28;20001;-58
2023/04/20 05:12:51;;;;;;;;;;;7.70;99.90;;;;;;4993325;28;19917;-55
2023/04/20 05:15:16;;;;;;;;;;;7.60;99.90;;;;;;4989134;28;20390;-57
2023/04/20 05:17:42;;;;;;;;;;;7.60;99.90;;;;;;4988892;28;19967;-55
2023/04/20 05:20:09;;;;;;;;;;;7.60;99.90;;;;;;4989067;28;19918;-56
2023/04/20 05:22:34;;;;;;;;;;;7.60;99.90;;;;;;4989850;28;19914;-52
2023/04/20 05:25:00;;;;;;;;;;;7.40;99.90;;;;;;4988838;28;19925;-56
2023/04/20 05:27:25;;;;;;;;;;;7.40;99.90;;;;;;4988974;28;19929;-52
2023/04/20 05:29:51;;;;;;;;;;;7.30;99.90;;;;;;4989006;28;19936;-54
2023/04/20 05:32:16;;;;;;;;;;;7.30;99.90;;;;;;4988784;28;19933;-54
2023/04/20 05:34:42;;;;;;;;;;;7.30;99.90;;;;;;4984910;28;19925;-53
2023/04/20 05:37:08;;;;;;;;;;;7.30;99.90;;;;;;4986668;28;19918;-56
2023/04/20 05:39:34;;;;;;;;;;;7.30;99.90;;;;;;5005205;28;19932;-55
2023/04/20 05:41:59;;;;;;;;;;;7.20;99.90;;;;;;4989989;28;20427;-56
2023/04/20 05:44:25;;;;;;;;;;;7.10;99.90;;;;;;4991928;28;20464;-55
2023/04/20 05:46:50;;;;;;;;;;;7.10;99.90;;;;;;4993263;28;20008;-56
2023/04/20 05:49:16;;;;;;;;;;;7.30;99.90;;;;;;4994631;28;19917;-56
2023/04/20 05:51:41;;;;;;;;;;;7.40;99.90;;;;;;4992984;28;20303;-55
2023/04/20 05:54:06;;;;;;;;;;;7.40;99.90;;;;;;4993671;28;19914;-54
2023/04/20 05:56:32;;;;;;;;;;;7.60;99.90;;;;;;4993292;28;19917;-54
2023/04/20 05:58:58;;;;;;;;;;;7.60;99.90;;;;;;4992344;28;19984;-54
2023/04/20 06:04:06;;;;;;;;;;;7.80;99.90;;;;;;5054806;28;20306;-53
2023/04/20 06:06:31;;;;;;;;;;;7.80;99.90;;;;;;5053657;28;19913;-53
2023/04/20 06:08:57;;;;;;;;;;;7.80;99.90;;;;;;5054252;28;19919;-57
2023/04/20 06:11:22;;;;;;;;;;;7.90;99.90;;;;;;5055434;28;20004;-56
2023/04/20 06:13:48;;;;;;;;;;;7.90;99.90;;;;;;5062635;28;19909;-57
2023/04/20 06:16:13;;;;;;;;;;;7.90;99.90;;;;;;5059598;28;20329;-57
2023/04/20 06:18:38;;;;;;;;;;;7.90;99.90;;;;;;5058292;28;19909;-54
2023/04/20 06:21:04;;;;;;;;;;;7.90;99.90;;;;;;5058638;28;20476;-57
2023/04/20 06:23:29;;;;;;;;;;;7.90;99.90;;;;;;5053632;28;19917;-57
2023/04/20 06:25:55;;;;;;;;;;;7.90;99.90;;;;;;5060101;28;19917;-55
2023/04/20 06:28:20;;;;;;;;;;;7.90;99.90;;;;;;5055754;28;20297;-54
2023/04/20 06:30:46;;;;;;;;;;;7.90;99.90;;;;;;5057017;28;19957;-56
2023/04/20 06:33:16;;;;;;;;;;;7.70;99.90;;;;;;5050945;28;20006;-56
2023/04/20 06:35:41;;;;;;;;;;;7.70;99.90;;;;;;5056236;28;19920;-55
2023/04/20 06:38:07;;;;;;;;;;;7.60;99.90;;;;;;5050967;28;19913;-57
2023/04/20 06:40:32;;;;;;;;;;;7.60;99.90;;;;;;5059519;28;19956;-56
2023/04/20 06:42:58;;;;;;;;;;;7.60;99.90;;;;;;5052237;28;19917;-53
2023/04/20 06:45:23;;;;;;;;;;;7.50;99.90;;;;;;5057214;28;21555;-53
2023/04/20 06:47:49;;;;;;;;;;;7.50;99.90;;;;;;5051164;28;19913;-54
2023/04/20 06:50:14;;;;;;;;;;;7.40;99.90;;;;;;5054011;28;19913;-56
2023/04/20 06:52:40;;;;;;;;;;;7.40;99.90;;;;;;5052053;28;19920;-56
2023/04/20 06:55:06;;;;;;;;;;;7.50;99.90;;;;;;5052303;28;19924;-57
2023/04/20 06:57:31;;;;;;;;;;;7.50;99.90;;;;;;5054267;28;20386;-52
2023/04/20 07:00:00;;;;;;;;;;;7.50;99.90;;;;;;5057049;28;19912;-54
2023/04/20 07:02:25;;;;;;;;;;;7.40;99.90;;;;;;5053484;28;19928;-56
2023/04/20 07:04:51;;;;;;;;;;;7.40;99.90;;;;;;5052588;28;20004;-56
2023/04/20 07:07:16;;;;;;;;;;;7.50;99.90;;;;;;5049127;28;19969;-55
2023/04/20 07:09:42;;;;;;;;;;;7.50;99.90;;;;;;5059802;28;19977;-56
2023/04/20 07:12:08;;;;;;;;;;;7.40;99.90;;;;;;5053652;28;19920;-57
2023/04/20 07:14:33;;;;;;;;;;;7.40;99.90;;;;;;5051272;28;19940;-56
2023/04/20 07:16:58;;;;;;;;;;;7.40;99.90;;;;;;5038660;28;19913;-58
2023/04/20 07:19:24;;;;;;;;;;;7.40;99.90;;;;;;5044125;28;19942;-57
2023/04/20 07:21:50;;;;;;;;;;;7.40;99.90;;;;;;5041672;28;19916;-57
2023/04/20 07:24:15;;;;;;;;;;;7.50;99.90;;;;;;5040776;28;20294;-57
2023/04/20 07:26:41;;;;;;;;;;;7.50;99.90;;;;;;5040653;28;20393;-56
2023/04/20 07:29:06;;;;;;;;;;;7.60;99.90;;;;;;5045443;28;19929;-52
2023/04/20 07:31:31;;;;;;;;;;;7.60;99.90;;;;;;5037604;28;19952;-58
2023/04/20 07:33:57;;;;;;;;;;;7.60;99.90;;;;;;5039667;28;19913;-57
2023/04/20 07:36:22;;;;;;;;;;;7.60;99.90;;;;;;5038860;28;20412;-53
2023/04/20 07:38:48;;;;;;;;;;;7.70;99.90;;;;;;5043269;28;19913;-58
2023/04/20 07:41:14;;;;;;;;;;;7.70;99.90;;;;;;5038715;28;19983;-58
2023/04/20 07:43:39;;;;;;;;;;;7.80;99.90;;;;;;5037466;28;20351;-57
2023/04/20 07:46:05;;;;;;;;;;;7.70;99.90;;;;;;5034425;28;20387;-57
2023/04/20 07:48:32;;;;;;;;;;;7.70;99.90;;;;;;5045276;28;20413;-56
2023/04/20 07:50:57;;;;;;;;;;;7.80;99.90;;;;;;5044135;28;20003;-57
2023/04/20 07:53:23;;;;;;;;;;;7.80;99.90;;;;;;5042092;28;20005;-56
2023/04/20 07:55:48;;;;;;;;;;;7.80;99.90;;;;;;5042799;28;19975;-54
2023/04/20 07:58:15;;;;;;;;;;;7.70;99.90;;;;;;5040431;28;20398;-55
2023/04/20 08:00:40;;;;;;;;;;;7.70;99.90;;;;;;5040015;28;19996;-54
2023/04/20 08:03:06;;;;;;;;;;;7.70;99.90;;;;;;5040295;28;19924;-55
2023/04/20 08:05:31;;;;;;;;;;;7.80;99.90;;;;;;5043853;28;19979;-57
2023/04/20 08:07:57;;;;;;;;;;;7.80;99.90;;;;;;5046878;28;19967;-57
2023/04/20 08:10:23;;;;;;;;;;;7.90;99.90;;;;;;5044933;28;19920;-56
2023/04/20 08:12:48;;;;;;;;;;;7.80;99.90;;;;;;5037703;28;19913;-56
2023/04/20 08:15:14;;;;;;;;;;;7.80;99.90;;;;;;5040476;28;19975;-58
2023/04/20 08:17:39;;;;;;;;;;;7.90;99.90;;;;;;5032722;28;19970;-58
2023/04/20 08:20:05;;;;;;;;;;;7.90;99.90;;;;;;5035824;28;19958;-59
2023/04/20 08:22:32;;;;;;;;;;;8.00;99.90;;;;;;5038608;28;19923;-57
2023/04/20 08:24:57;;;;;;;;;;;8.00;99.90;;;;;;5039654;28;19913;-56
2023/04/20 08:27:23;;;;;;;;;;;8.10;99.90;;;;;;5035486;28;19916;-57
2023/04/20 08:29:48;;;;;;;;;;;8.10;99.90;;;;;;5038627;28;20007;-57
2023/04/20 08:32:14;;;;;;;;;;;8.00;99.90;;;;;;5036018;28;19913;-56
2023/04/20 08:34:40;;;;;;;;;;;8.10;99.90;;;;;;5048852;28;19954;-59
2023/04/20 08:37:05;;;;;;;;;;;8.10;99.90;;;;;;5035471;28;20330;-55
2023/04/20 08:39:30;;;;;;;;;;;8.00;99.90;;;;;;5041695;28;20409;-56
2023/04/20 08:41:57;;;;;;;;;;;8.00;99.90;;;;;;5035196;28;19909;-56
2023/04/20 08:44:23;;;;;;;;;;;8.00;99.90;;;;;;5044685;28;19983;-57
2023/04/20 08:46:49;;;;;;;;;;;8.10;99.90;;;;;;5035416;28;20410;-57
2023/04/20 08:49:15;;;;;;;;;;;8.00;99.90;;;;;;5044533;28;19995;-56
2023/04/20 08:51:41;;;;;;;;;;;8.00;99.90;;;;;;5038867;28;20007;-53
2023/04/20 08:54:07;;;;;;;;;;;8.10;99.90;;;;;;5038591;28;19936;-56
2023/04/20 08:56:37;;;;;;;;;;;8.10;99.90;;;;;;5031315;28;19913;-56
2023/04/20 08:59:04;;;;;;;;;;;8.10;99.90;;;;;;5037314;28;19913;-57
2023/04/20 09:01:30;;;;;;;;;;;8.20;99.90;;;;;;5033941;28;19924;-59
2023/04/20 09:03:55;;;;;;;;;;;8.30;99.90;;;;;;5041790;28;19925;-58
2023/04/20 09:06:21;;;;;;;;;;;8.30;99.90;;;;;;5034599;28;20008;-58
2023/04/20 09:08:48;;;;;;;;;;;8.40;99.90;;;;;;5042006;28;19917;-57
2023/04/20 09:11:22;;;;;;;;;;;8.30;99.90;;;;;;5034823;28;19913;-57
2023/04/20 09:14:00;;;;;;;;;;;8.40;99.90;;;;;;5038036;28;20000;-58
2023/04/20 09:16:25;;;;;;;;;;;8.50;99.90;;;;;;5038544;28;19913;-58
2023/04/20 09:18:55;;;;;;;;;;;8.40;99.90;;;;;;5035391;28;19923;-57
2023/04/20 09:21:21;;;;;;;;;;;8.40;99.90;;;;;;5035766;28;19944;-57
2023/04/20 09:24:05;;;;;;;;;;;8.40;99.90;;;;;;5040103;28;19963;-59
2023/04/20 09:26:32;;;;;;;;;;;8.30;99.90;;;;;;5042736;28;19913;-57
2023/04/20 09:28:57;;;;;;;;;;;8.40;99.90;;;;;;5036945;28;20350;-57
2023/04/20 09:31:22;;;;;;;;;;;8.40;99.90;;;;;;5039996;28;19917;-55
2023/04/20 09:33:58;;;;;;;;;;;8.20;99.90;;;;;;5039031;28;20401;-57
2023/04/20 09:36:33;;;;;;;;;;;8.20;99.90;;;;;;5043943;28;20573;-58
2023/04/20 09:39:02;;;;;;;;;;;8.30;99.90;;;;;;5037553;28;20004;-56
2023/04/20 09:41:29;;;;;;;;;;;8.40;99.90;;;;;;5043805;28;19913;-56
2023/04/20 09:43:55;;;;;;;;;;;8.40;99.90;;;;;;5036246;28;19920;-58
2023/04/20 09:46:21;;;;;;;;;;;8.40;99.90;;;;;;5043258;28;19929;-58
2023/04/20 09:48:46;;;;;;;;;;;8.30;99.90;;;;;;5043571;28;19963;-53
2023/04/20 09:51:12;;;;;;;;;;;8.30;99.90;;;;;;5041913;28;20367;-53
2023/04/20 09:53:38;;;;;;;;;;;8.30;99.90;;;;;;5037231;28;20616;-58
2023/04/20 09:56:04;;;;;;;;;;;8.40;99.90;;;;;;5036989;28;19917;-57
2023/04/20 09:58:31;;;;;;;;;;;8.60;99.90;;;;;;5041480;28;20406;-57
2023/04/20 10:00:56;;;;;;;;;;;8.80;99.90;;;;;;5040864;28;20401;-55
2023/04/20 10:03:22;;;;;;;;;;;8.70;99.90;;;;;;5036890;28;19983;-57
2023/04/20 10:05:47;;;;;;;;;;;8.60;99.90;;;;;;5044146;28;19908;-57
2023/04/20 10:08:13;;;;;;;;;;;8.50;99.90;;;;;;5038448;28;20295;-57
2023/04/20 10:10:45;;;;;;;;;;;8.30;99.90;;;;;;5040630;28;19916;-58
2023/04/20 10:13:11;;;;;;;;;;;8.10;99.90;;;;;;5038307;28;20008;-57
2023/04/20 10:15:37;;;;;;;;;;;7.90;99.90;;;;;;5037500;28;20004;-59
2023/04/20 10:18:15;;;;;;;;;;;7.80;99.90;;;;;;5035986;28;19996;-59
2023/04/20 10:20:40;;;;;;;;;;;7.90;99.90;;;;;;5033362;28;19919;-60
2023/04/20 10:23:08;;;;;;;;;;;8.00;99.90;;;;;;5036219;28;20019;-57
2023/04/20 10:25:34;;;;;;;;;;;8.10;99.90;;;;;;5038215;28;19970;-57
2023/04/20 10:28:03;;;;;;;;;;;8.00;99.90;;;;;;5030629;28;19921;-58
2023/04/20 10:30:29;;;;;;;;;;;7.90;99.90;;;;;;5031236;28;20826;-53
2023/04/20 10:33:05;;;;;;;;;;;7.80;99.90;;;;;;5034476;28;19940;-58
2023/04/20 10:35:47;;;;;;;;;;;7.80;99.90;;;;;;5030789;28;20413;-59
2023/04/20 10:38:12;;;;;;;;;;;8.10;99.90;;;;;;5038105;28;19913;-58
2023/04/20 10:40:38;;;;;;;;;;;8.30;99.90;;;;;;5034292;28;19967;-60
2023/04/20 10:43:04;;;;;;;;;;;8.60;99.90;;;;;;5035452;28;20393;-58
2023/04/20 10:45:32;;;;;;;;;;;9.10;99.90;;;;;;5037953;28;19913;-57
2023/04/20 10:48:04;;;;;;;;;;;9.60;99.90;;;;;;5037981;28;20456;-58
2023/04/20 10:50:30;;;;;;;;;;;10.20;99.90;;;;;;5039213;28;19923;-57
2023/04/20 10:52:55;;;;;;;;;;;10.60;99.90;;;;;;5044481;28;20306;-58
2023/04/20 10:55:22;;;;;;;;;;;10.60;99.90;;;;;;5038276;28;19956;-58
2023/04/20 10:57:48;;;;;;;;;;;10.70;99.90;;;;;;5047345;28;19914;-57
2023/04/20 11:00:15;;;;;;;;;;;10.40;99.90;;;;;;5036278;28;19917;-58
2023/04/20 11:02:50;;;;;;;;;;;9.80;99.90;;;;;;5041743;28;19929;-57
2023/04/20 11:05:16;;;;;;;;;;;9.40;99.90;;;;;;5040459;28;19920;-57
2023/04/20 11:07:51;;;;;;;;;;;9.20;99.90;;;;;;5034695;28;19920;-56
2023/04/20 11:10:17;;;;;;;;;;;9.10;99.90;;;;;;5033572;28;20008;-56
2023/04/20 11:12:42;;;;;;;;;;;9.20;99.90;;;;;;5038992;28;20015;-53
2023/04/20 11:15:08;;;;;;;;;;;9.30;99.90;;;;;;5037166;28;20362;-56
2023/04/20 11:17:35;;;;;;;;;;;9.40;99.90;;;;;;5038687;28;20036;-56
2023/04/20 11:20:18;;;;;;;;;;;9.50;99.90;;;;;;5036899;28;19958;-57
2023/04/20 11:22:54;;;;;;;;;;;9.60;99.90;;;;;;5038293;28;19928;-59
2023/04/20 11:25:20;;;;;;;;;;;9.80;99.90;;;;;;5043801;28;19917;-58
2023/04/20 11:27:45;;;;;;;;;;;9.90;99.90;;;;;;5041761;28;19927;-58
2023/04/20 11:30:11;;;;;;;;;;;10.20;99.90;;;;;;5046129;28;19992;-59
2023/04/20 11:32:37;;;;;;;;;;;10.40;99.90;;;;;;5034531;28;20059;-58
2023/04/20 11:35:08;;;;;;;;;;;10.40;99.90;;;;;;5045670;28;19912;-56
2023/04/20 11:37:45;;;;;;;;;;;10.40;99.90;;;;;;5037605;28;19918;-59
2023/04/20 11:40:10;;;;;;;;;;;10.50;99.90;;;;;;5040247;28;19921;-58
2023/04/20 11:42:36;;;;;;;;;;;10.60;99.90;;;;;;5046465;28;19924;-58
2023/04/20 11:45:02;;;;;;;;;;;10.70;99.90;;;;;;5044713;28;19913;-58
2023/04/20 11:47:27;;;;;;;;;;;11.00;99.90;;;;;;5035917;28;19920;-58
2023/04/20 11:49:53;;;;;;;;;;;11.10;99.90;;;;;;5040969;28;19913;-54
2023/04/20 11:52:18;;;;;;;;;;;11.00;99.90;;;;;;5040452;28;20359;-59
2023/04/20 11:54:44;;;;;;;;;;;10.60;99.90;;;;;;5039198;28;19913;-58
2023/04/20 11:57:10;;;;;;;;;;;10.40;99.90;;;;;;5039031;28;19956;-57
2023/04/20 11:59:35;;;;;;;;;;;10.30;99.90;;;;;;5046143;28;19916;-59
2023/04/20 12:02:02;;;;;;;;;;;10.50;99.90;;;;;;5036524;28;20414;-59
2023/04/20 12:04:28;;;;;;;;;;;11.00;99.90;;;;;;5041187;28;19913;-56
2023/04/20 12:06:54;;;;;;;;;;;11.60;99.90;;;;;;5036548;28;19913;-61
2023/04/20 12:09:20;;;;;;;;;;;11.90;99.90;;;;;;5038676;28;19913;-66
2023/04/20 12:11:45;;;;;;;;;;;11.80;99.90;;;;;;5039942;28;20447;-62
2023/04/20 12:14:11;;;;;;;;;;;12.20;99.90;;;;;;5038783;28;19917;-63
2023/04/20 12:16:36;;;;;;;;;;;12.70;99.90;;;;;;5038932;28;19959;-62
2023/04/20 12:19:02;;;;;;;;;;;13.10;99.90;;;;;;5039766;28;20567;-62
2023/04/20 12:21:27;;;;;;;;;;;12.90;99.90;;;;;;5040143;28;20298;-60
2023/04/20 12:23:53;;;;;;;;;;;12.50;99.90;;;;;;5036941;28;20245;-60
2023/04/20 12:26:18;;;;;;;;;;;11.90;99.90;;;;;;5035382;28;19928;-61
2023/04/20 12:28:47;;;;;;;;;;;11.60;99.90;;;;;;5032796;28;19944;-61
2023/04/20 12:31:12;;;;;;;;;;;11.40;99.90;;;;;;5033017;28;20042;-63
2023/04/20 12:33:37;;;;;;;;;;;11.30;99.90;;;;;;5034721;28;20024;-62
2023/04/20 12:36:03;;;;;;;;;;;11.20;99.90;;;;;;5033268;28;19913;-61
2023/04/20 12:38:28;;;;;;;;;;;11.10;99.90;;;;;;5039861;28;19976;-60
2023/04/20 12:40:54;;;;;;;;;;;11.30;99.90;;;;;;5033830;28;19936;-62
2023/04/20 12:43:19;;;;;;;;;;;11.70;99.90;;;;;;5037110;28;19928;-61
2023/04/20 12:45:46;;;;;;;;;;;12.00;99.90;;;;;;5038463;28;20721;-60
2023/04/20 12:48:12;;;;;;;;;;;12.20;99.90;;;;;;5039362;28;19917;-63
2023/04/20 12:50:37;;;;;;;;;;;12.50;99.90;;;;;;5039550;28;19917;-61
2023/04/20 12:53:03;;;;;;;;;;;13.00;99.90;;;;;;5034338;28;19913;-63
2023/04/20 12:55:28;;;;;;;;;;;13.60;99.90;;;;;;5041368;28;19917;-63
2023/04/20 12:57:54;;;;;;;;;;;14.00;99.90;;;;;;5038858;28;19939;-64
2023/04/20 13:00:19;;;;;;;;;;;14.30;99.90;;;;;;5041127;28;19924;-63
2023/04/20 13:02:45;;;;;;;;;;;14.00;99.90;;;;;;5031315;28;20003;-60
2023/04/20 13:05:10;;;;;;;;;;;14.20;99.90;;;;;;5039880;28;20725;-61
2023/04/20 13:07:36;;;;;;;;;;;14.60;99.90;;;;;;5038320;28;19916;-63
2023/04/20 13:10:02;;;;;;;;;;;14.90;99.90;;;;;;5039332;28;20248;-60
2023/04/20 13:12:28;;;;;;;;;;;14.70;99.90;;;;;;5036034;28;19924;-62
2023/04/20 13:14:53;;;;;;;;;;;13.90;99.90;;;;;;5037672;28;19917;-60
2023/04/20 13:17:19;;;;;;;;;;;13.10;99.90;;;;;;5034290;28;20225;-63
2023/04/20 13:19:45;;;;;;;;;;;13.10;99.90;;;;;;5039807;28;19917;-62
2023/04/20 13:22:11;;;;;;;;;;;13.50;99.90;;;;;;5032494;28;19928;-55
2023/04/20 13:24:36;;;;;;;;;;;14.10;99.90;;;;;;5038456;28;19917;-58
2023/04/20 13:27:02;;;;;;;;;;;14.10;99.90;;;;;;5035167;28;19917;-56
2023/04/20 13:29:27;;;;;;;;;;;14.20;99.90;;;;;;5035203;28;19924;-57
2023/04/20 13:31:53;;;;;;;;;;;14.10;99.90;;;;;;5035749;28;19936;-55
2023/04/20 13:34:18;;;;;;;;;;;13.70;99.90;;;;;;5034206;28;19912;-56
2023/04/20 13:36:44;;;;;;;;;;;13.70;99.90;;;;;;5039993;28;19952;-57
2023/04/20 13:39:10;;;;;;;;;;;14.00;99.90;;;;;;5035889;28;19917;-55
2023/04/20 13:41:36;;;;;;;;;;;14.60;99.90;;;;;;5039096;28;19921;-54
2023/04/20 13:44:01;;;;;;;;;;;15.00;99.90;;;;;;5034463;28;19924;-53
2023/04/20 13:46:27;;;;;;;;;;;15.40;99.90;;;;;;5032470;28;19917;-54
2023/04/20 13:48:53;;;;;;;;;;;15.90;99.90;;;;;;5039362;28;19932;-53
2023/04/20 13:51:18;;;;;;;;;;;16.30;99.90;;;;;;5039948;28;19966;-51
2023/04/20 13:53:44;;;;;;;;;;;16.70;99.90;;;;;;5031766;28;19916;-53
2023/04/20 13:56:09;;;;;;;;;;;16.90;98.30;;;;;;5034628;28;20421;-54
2023/04/20 13:58:35;;;;;;;;;;;16.60;94.00;;;;;;5036862;28;19956;-55
2023/04/20 14:01:05;;;;;;;;;;;15.40;99.90;;;;;;5043450;28;19999;-53
2023/04/20 14:03:31;;;;;;;;;;;15.20;99.90;;;;;;5037153;28;19921;-53
2023/04/20 14:05:56;;;;;;;;;;;15.30;99.90;;;;;;5033851;28;19921;-54
2023/04/20 14:08:22;;;;;;;;;;;15.70;97.00;;;;;;5032461;28;19917;-53
2023/04/20 14:10:47;;;;;;;;;;;16.00;96.20;;;;;;5030641;28;20311;-54
2023/04/20 14:13:13;;;;;;;;;;;15.90;95.10;;;;;;5033895;28;19942;-56
2023/04/20 14:15:38;;;;;;;;;;;16.10;97.40;;;;;;5033805;28;20396;-55
2023/04/20 14:18:04;;;;;;;;;;;16.00;93.50;;;;;;5035882;28;20444;-56
2023/04/20 14:20:29;;;;;;;;;;;15.60;93.00;;;;;;5033956;28;19924;-58
2023/04/20 14:22:55;;;;;;;;;;;15.30;95.30;;;;;;5031447;28;19986;-55